Aviation Digital Data Service (ADDS)

Output produced by METARs form (0503 UTC 24 May 2022)
found at http://aviationweather.gov/metar/data/
 
KSNS 240453Z AUTO 32008KT 9SM CLR 14/08 A2991 RMK AO2 SLP137 T01390078 TSNO
KSNS 240456Z 2405/2424 30008KT P6SM SKC 
     FM241000 VRB03KT P6SM FEW012 
     FM241600 31006KT P6SM FEW012 
     FM242100 28012KT P6SM SKC
       
KMRY 240454Z AUTO 24007KT 10SM OVC012 12/08 A2994 RMK AO2 SLP150 T01220083
KMRY 240453Z 2405/2424 23005KT P6SM SKC 
     FM240900 VRB03KT P6SM BKN010 
     FM241600 VRB03KT P6SM SCT010 
     FM242000 30008KT P6SM SKC
       
KSJC 240453Z 32006KT 10SM CLR 16/09 A2989 RMK AO2 SLP121 T01610094
KSJC 240446Z 2405/2424 33005KT P6SM FEW110 
     FM241200 14004KT P6SM SKC 
     FM242000 31009KT P6SM SKC
       
KRHV 240450Z 28005KT 10SM SKC 17/08 A2990
KSFO 240456Z 30015KT 10SM FEW200 13/08 A2989 RMK AO2 SLP121 T01280083
KSFO 240443Z 2405/2506 30014KT P6SM FEW200 
     FM240900 29011KT P6SM SKC 
     FM241300 VRB05KT P6SM SKC 
     FM241700 34006KT P6SM SKC 
     FM242000 31014KT P6SM SKC 
     FM242300 28020G28KT P6SM SKC 
     FM250300 29015KT P6SM SKC
       
KLVK 240453Z AUTO 30006KT 10SM CLR 18/09 A2986 RMK AO2 SLP108 T01830089
KLVK 240449Z 2405/2424 31007KT P6SM SKC 
     FM240900 VRB03KT P6SM SKC 
     FM241900 32007KT P6SM SKC
       
KMCE 240453Z AUTO 31006KT 10SM CLR 26/07 A2980 RMK AO2 SLP090 T02560067
KMCE 232320Z 2400/2424 33014G19KT P6SM SKC 
     FM240300 VRB04KT P6SM SKC